Uvalda, Georgia
Current Conditions -  °F | °C
As of 8:55 AM on Thursday 23 Oct 2014 (Local Time) from KAZE Reporting Station
Clear Clear  
Wind Chill: 51°   Ceiling: Unl
Heat Index: 51°   Visibility: 10mi
Dew Point: 46°   Wind: 0mph
Humidity: 83%   Direction: NA
Pressure: 30.11"   Gusts: NA
Location:  32.04°N, 82.51°W
Report Text: KAZE 231255Z AUTO 00000KT 10SM CLR 11/08 A3011 RMK AO2 T01050077
Loading
Personal Weather Stations






























Interactive Weather Map
Tropical Storm Tracking
New forecast layout! Learn more

10-Day Weather Forecast

Advertisements
Track Severe Weather on mobile